createdAt,value
2023-04-03T00:00:17.069Z,11.82
2023-04-03T00:02:45.568Z,12.03
2023-04-03T00:05:12.145Z,12.14
2023-04-03T00:07:38.649Z,12.08
2023-04-03T00:10:05.562Z,12.18
2023-04-03T00:12:32.029Z,12.26
2023-04-03T00:14:58.554Z,12.33
2023-04-03T00:17:25.099Z,12.35
2023-04-03T00:19:51.727Z,12.39
2023-04-03T00:22:18.189Z,12.49
2023-04-03T00:24:44.678Z,12.43
2023-04-03T00:27:11.149Z,12.48
2023-04-03T00:29:37.615Z,12.54
2023-04-03T00:32:04.164Z,12.51
2023-04-03T00:34:30.649Z,12.49
2023-04-03T00:36:58.054Z,12.55
2023-04-03T00:39:24.561Z,12.31
2023-04-03T00:41:51.061Z,12.41
2023-04-03T00:44:29.366Z,12.35
2023-04-03T00:46:55.856Z,12.46
2023-04-03T00:49:22.497Z,12.49
2023-04-03T00:51:49.593Z,12.19
2023-04-03T00:54:16.191Z,12.27
2023-04-03T00:56:44.368Z,12.29
2023-04-03T00:59:21.269Z,12.30
2023-04-03T01:01:47.917Z,12.13
2023-04-03T01:04:39.966Z,11.90
2023-04-03T01:07:14.958Z,11.35
2023-04-03T01:09:42.021Z,10.44
2023-04-03T01:12:21.850Z,10.22
2023-04-03T01:14:52.478Z,10.74
2023-04-03T01:17:40.747Z,11.14
2023-04-03T01:20:30.244Z,11.41
2023-04-03T01:23:12.070Z,11.63
2023-04-03T01:25:43.056Z,11.48
2023-04-03T01:28:14.271Z,11.62
2023-04-03T01:30:47.208Z,11.66
2023-04-03T01:33:16.238Z,11.82
2023-04-03T01:35:42.703Z,11.81
2023-04-03T01:38:09.265Z,11.92
2023-04-03T01:40:35.970Z,11.83
2023-04-03T01:43:02.645Z,11.84
2023-04-03T01:45:29.196Z,11.54
2023-04-03T01:47:55.768Z,10.98
2023-04-03T01:50:22.222Z,10.62
2023-04-03T01:52:48.762Z,9.93
2023-04-03T01:55:15.468Z,9.67
2023-04-03T01:57:42.006Z,8.93
2023-04-03T02:00:09.100Z,9.04
2023-04-03T02:02:35.669Z,8.95
2023-04-03T02:05:02.248Z,9.15
2023-04-03T02:07:28.756Z,9.65
2023-04-03T02:09:55.209Z,10.04
2023-04-03T02:12:21.685Z,9.89
2023-04-03T02:14:48.143Z,10.19
2023-04-03T02:17:14.601Z,10.13
2023-04-03T02:19:41.215Z,10.35
2023-04-03T02:22:07.933Z,10.56
2023-04-03T02:24:34.443Z,10.76
2023-04-03T02:27:01.028Z,10.69
2023-04-03T02:29:27.548Z,10.83
2023-04-03T02:31:54.052Z,10.52
2023-04-03T02:34:20.542Z,10.98
2023-04-03T02:36:47.035Z,10.63
2023-04-03T02:39:13.568Z,10.97
2023-04-03T02:41:40.116Z,11.24
2023-04-03T02:44:07.910Z,10.71
2023-04-03T02:46:34.477Z,11.24
2023-04-03T02:49:00.983Z,11.32
2023-04-03T02:51:27.496Z,11.21
2023-04-03T02:53:54.002Z,10.65
2023-04-03T02:56:20.766Z,9.83
2023-04-03T02:58:47.404Z,10.18
2023-04-03T03:01:17.018Z,10.20
2023-04-03T03:03:43.523Z,10.35
2023-04-03T03:06:13.033Z,9.59
2023-04-03T03:08:39.877Z,9.32
2023-04-03T03:11:06.736Z,9.01
2023-04-03T03:13:33.863Z,9.19
2023-04-03T03:16:01.145Z,9.59
2023-04-03T03:18:27.694Z,10.11
2023-04-03T03:20:56.342Z,10.17
2023-04-03T03:23:25.264Z,10.37
2023-04-03T03:26:00.905Z,10.37
2023-04-03T03:28:27.577Z,10.56
2023-04-03T03:30:54.109Z,10.33
2023-04-03T03:33:20.629Z,9.87
2023-04-03T03:35:47.365Z,10.20
2023-04-03T03:38:13.855Z,10.43
2023-04-03T03:40:40.515Z,10.06
2023-04-03T03:43:07.071Z,10.23
2023-04-03T03:45:33.556Z,10.30
2023-04-03T03:48:00.400Z,10.80
2023-04-03T03:50:26.962Z,10.79
2023-04-03T03:52:53.558Z,10.55
2023-04-03T03:55:20.224Z,10.57
2023-04-03T03:57:46.740Z,10.74
2023-04-03T04:00:14.118Z,10.98
2023-04-03T04:02:40.690Z,11.13
2023-04-03T04:05:07.648Z,10.64
2023-04-03T04:07:34.105Z,10.82
2023-04-03T04:10:00.609Z,10.86
2023-04-03T04:12:27.105Z,11.06
2023-04-03T04:14:53.569Z,10.78
2023-04-03T04:17:20.203Z,10.56
2023-04-03T04:19:46.701Z,10.44
2023-04-03T04:22:13.182Z,10.36
2023-04-03T04:24:39.987Z,10.28
2023-04-03T04:27:15.548Z,9.78
2023-04-03T04:29:42.054Z,10.22
2023-04-03T04:32:08.553Z,9.95
2023-04-03T04:34:35.436Z,9.57
2023-04-03T04:37:02.047Z,9.65
2023-04-03T04:39:28.628Z,10.20
2023-04-03T04:41:55.132Z,10.10
2023-04-03T04:44:21.854Z,9.78
2023-04-03T04:46:48.362Z,9.96
2023-04-03T04:49:14.849Z,9.83
2023-04-03T04:51:51.616Z,10.31
2023-04-03T04:54:19.386Z,10.12
2023-04-03T04:56:45.899Z,10.06
2023-04-03T04:59:12.743Z,9.91
2023-04-03T05:01:39.924Z,9.59
2023-04-03T05:04:06.477Z,9.38
2023-04-03T05:06:33.151Z,9.66
2023-04-03T05:08:59.938Z,9.89
2023-04-03T05:11:26.423Z,10.11
2023-04-03T05:13:52.904Z,9.72
2023-04-03T05:16:19.461Z,9.67
2023-04-03T05:18:46.013Z,9.80
2023-04-03T05:21:12.517Z,9.28
2023-04-03T05:23:39.063Z,9.42
2023-04-03T05:26:17.125Z,9.51
2023-04-03T05:28:43.597Z,9.66
2023-04-03T05:31:10.183Z,9.74
2023-04-03T05:33:36.720Z,9.69
2023-04-03T05:36:06.843Z,9.88
2023-04-03T05:38:33.530Z,9.59
2023-04-03T05:41:00.110Z,9.45
2023-04-03T05:43:26.592Z,9.40
2023-04-03T05:45:53.345Z,9.11
2023-04-03T05:48:19.867Z,8.78
2023-04-03T05:50:47.226Z,8.77
2023-04-03T05:53:22.096Z,9.00
2023-04-03T05:55:48.612Z,9.22
2023-04-03T06:00:29.332Z,8.91
2023-04-03T06:02:56.096Z,8.79
2023-04-03T06:05:22.644Z,9.27
2023-04-03T06:07:49.124Z,9.30
2023-04-03T06:10:15.588Z,9.33
2023-04-03T06:12:42.056Z,9.70
2023-04-03T06:15:08.987Z,9.31
2023-04-03T06:17:35.535Z,9.11
2023-04-03T06:20:02.131Z,9.22
2023-04-03T06:22:28.809Z,9.77
2023-04-03T06:24:55.304Z,9.78
2023-04-03T06:27:21.906Z,9.66
2023-04-03T06:29:48.437Z,9.50
2023-04-03T06:32:15.664Z,8.90
2023-04-03T06:34:42.465Z,8.81
2023-04-03T06:37:17.544Z,8.60
2023-04-03T06:39:44.374Z,8.47
2023-04-03T06:42:10.898Z,8.54
2023-04-03T06:44:38.065Z,8.77
2023-04-03T06:47:04.713Z,8.89
2023-04-03T06:49:31.443Z,9.08
2023-04-03T06:51:59.292Z,9.03
2023-04-03T06:54:27.384Z,8.81
2023-04-03T06:56:54.050Z,8.96
2023-04-03T06:59:20.543Z,8.29
2023-04-03T07:01:47.032Z,8.37
2023-04-03T07:04:13.677Z,7.74
2023-04-03T07:06:40.150Z,7.86
2023-04-03T07:09:06.732Z,8.35
2023-04-03T07:11:33.239Z,8.36
2023-04-03T07:13:59.755Z,8.20
2023-04-03T07:16:26.391Z,8.07
2023-04-03T07:18:53.033Z,8.59
2023-04-03T07:21:19.690Z,8.74
2023-04-03T07:23:46.280Z,8.24
2023-04-03T07:26:12.755Z,7.88
2023-04-03T07:28:39.280Z,8.05
2023-04-03T07:31:07.881Z,8.44
2023-04-03T07:33:35.961Z,8.37
2023-04-03T07:36:02.910Z,8.37
2023-04-03T07:38:29.440Z,7.99
2023-04-03T07:40:55.942Z,8.09
2023-04-03T07:43:23.149Z,8.15
2023-04-03T07:45:50.376Z,7.50
2023-04-03T07:48:21.603Z,7.17
2023-04-03T07:50:48.131Z,7.28
2023-04-03T07:53:15.411Z,7.00
2023-04-03T07:55:42.336Z,7.31
2023-04-03T07:58:13.153Z,7.57
2023-04-03T08:00:40.380Z,7.83
2023-04-03T08:03:11.257Z,7.91
2023-04-03T08:05:43.631Z,8.18
2023-04-03T08:08:12.760Z,8.40
2023-04-03T08:10:40.414Z,8.65
2023-04-03T08:13:09.232Z,8.29
2023-04-03T08:15:36.398Z,7.90
2023-04-03T08:18:03.765Z,8.23
2023-04-03T08:20:30.294Z,8.22
2023-04-03T08:22:57.013Z,8.24
2023-04-03T08:25:23.984Z,8.72
2023-04-03T08:27:50.611Z,8.85
2023-04-03T08:30:17.203Z,9.22
2023-04-03T08:32:43.735Z,9.39
2023-04-03T08:35:10.627Z,8.59
2023-04-03T08:37:38.608Z,8.58
2023-04-03T08:40:08.282Z,8.58
2023-04-03T08:43:01.534Z,8.70
2023-04-03T08:45:53.061Z,8.54
2023-04-03T08:48:27.821Z,8.45
2023-04-03T08:51:03.206Z,8.55
2023-04-03T08:53:36.050Z,8.56
2023-04-03T08:56:11.082Z,8.13
2023-04-03T08:58:51.366Z,8.16
2023-04-03T09:01:17.809Z,8.70
2023-04-03T09:03:44.436Z,8.93
2023-04-03T09:06:20.780Z,8.74
2023-04-03T09:09:07.255Z,8.26
2023-04-03T09:11:59.529Z,8.32
2023-04-03T09:14:38.038Z,8.75
2023-04-03T09:17:17.286Z,8.75
2023-04-03T09:19:54.080Z,9.08
2023-04-03T09:22:36.453Z,8.43
2023-04-03T09:25:16.351Z,7.72
2023-04-03T09:27:43.582Z,7.82
2023-04-03T09:30:22.496Z,7.88
2023-04-03T09:32:52.550Z,8.01
2023-04-03T09:35:44.818Z,8.09
2023-04-03T09:38:14.366Z,8.76
2023-04-03T09:40:43.784Z,8.27
2023-04-03T09:43:32.548Z,8.04
2023-04-03T09:46:19.307Z,7.81
2023-04-03T09:49:08.301Z,8.19
2023-04-03T09:51:37.901Z,7.73
2023-04-03T09:54:32.151Z,8.17
2023-04-03T09:57:07.008Z,8.36
2023-04-03T09:59:34.343Z,8.51
2023-04-03T10:02:20.246Z,8.22
2023-04-03T10:04:48.936Z,8.84
2023-04-03T10:07:54.493Z,8.45
2023-04-03T10:10:24.748Z,8.52
2023-04-03T10:13:20.991Z,8.83
2023-04-03T10:16:00.118Z,9.15
2023-04-03T10:18:50.453Z,9.26
2023-04-03T10:21:29.249Z,9.44
2023-04-03T10:24:35.750Z,9.47
2023-04-03T10:27:24.008Z,9.49
2023-04-03T10:30:04.710Z,9.21
2023-04-03T10:32:46.209Z,9.51
2023-04-03T10:35:22.653Z,9.77
2023-04-03T10:37:57.902Z,9.75
2023-04-03T10:40:33.868Z,10.14
2023-04-03T10:43:40.575Z,9.99
2023-04-03T10:46:25.819Z,9.81
2023-04-03T10:49:29.338Z,10.39
2023-04-03T10:52:10.586Z,10.38
2023-04-03T10:54:48.754Z,10.15
2023-04-03T10:57:15.575Z,9.83
2023-04-03T10:59:54.308Z,9.23
2023-04-03T11:02:37.571Z,9.11
2023-04-03T11:05:18.911Z,9.78
2023-04-03T11:07:52.288Z,9.45
2023-04-03T11:10:25.287Z,9.64
2023-04-03T11:13:07.574Z,9.52
2023-04-03T11:15:34.240Z,10.02
2023-04-03T11:18:12.050Z,10.50
2023-04-03T11:20:47.891Z,9.82
2023-04-03T11:23:28.369Z,9.23
2023-04-03T11:26:14.251Z,9.46
2023-04-03T11:28:42.135Z,9.22
2023-04-03T11:31:34.357Z,9.06
2023-04-03T11:34:32.312Z,9.59
2023-04-03T11:37:02.185Z,9.39
2023-04-03T11:39:38.415Z,9.84
2023-04-03T11:42:32.164Z,9.37
2023-04-03T11:45:23.804Z,9.77
2023-04-03T11:47:59.665Z,9.99
2023-04-03T11:50:39.749Z,10.19
2023-04-03T11:53:09.207Z,10.11
2023-04-03T11:55:35.856Z,9.83
2023-04-03T11:58:04.753Z,9.77
2023-04-03T12:00:46.257Z,10.20
2023-04-03T12:03:25.164Z,10.35
2023-04-03T12:05:52.466Z,10.53
2023-04-03T12:08:30.909Z,10.80
2023-04-03T12:11:09.245Z,10.58
2023-04-03T12:13:39.668Z,10.37
2023-04-03T12:16:08.526Z,9.65
2023-04-03T12:18:38.018Z,10.19
2023-04-03T12:21:07.198Z,10.03
2023-04-03T12:23:56.520Z,10.38
2023-04-03T12:26:35.382Z,10.36
2023-04-03T12:29:21.440Z,9.80
2023-04-03T12:32:14.487Z,9.46
2023-04-03T12:34:53.001Z,9.86
2023-04-03T12:37:49.086Z,10.18
2023-04-03T12:40:44.649Z,10.09
2023-04-03T12:43:41.086Z,9.50
2023-04-03T12:46:07.576Z,9.53
2023-04-03T12:48:54.144Z,10.36
2023-04-03T12:51:30.926Z,10.46
2023-04-03T12:54:13.438Z,10.66
2023-04-03T12:56:40.273Z,10.83
2023-04-03T12:59:32.748Z,10.17
2023-04-03T13:02:03.090Z,10.27
2023-04-03T13:04:32.586Z,10.07
2023-04-03T13:07:00.597Z,10.21
2023-04-03T13:09:32.318Z,10.39
2023-04-03T13:12:14.157Z,10.27
2023-04-03T13:14:41.477Z,10.09
2023-04-03T13:17:15.376Z,10.05
2023-04-03T13:19:42.821Z,10.25
2023-04-03T13:22:28.236Z,10.39
2023-04-03T13:25:02.012Z,10.66
2023-04-03T13:27:32.933Z,11.04
2023-04-03T13:30:02.908Z,11.40
2023-04-03T13:32:32.333Z,11.84
2023-04-03T13:35:08.164Z,12.12
2023-04-03T13:37:38.498Z,12.18
2023-04-03T13:40:13.431Z,12.76
2023-04-03T13:42:42.392Z,13.53
2023-04-03T13:45:26.458Z,12.87
2023-04-03T13:48:20.232Z,12.39
2023-04-03T13:51:01.647Z,12.02
2023-04-03T13:53:31.547Z,12.38
2023-04-03T13:56:09.164Z,12.71
2023-04-03T13:58:37.361Z,13.09
2023-04-03T14:01:20.397Z,13.16
2023-04-03T14:04:00.056Z,13.68
2023-04-03T14:06:26.612Z,13.98
2023-04-03T14:08:53.487Z,14.17
2023-04-03T14:11:29.512Z,14.58
2023-04-03T14:14:02.251Z,14.22
2023-04-03T14:16:35.482Z,14.42
2023-04-03T14:19:01.987Z,14.28
2023-04-03T14:21:28.461Z,14.07
2023-04-03T14:23:55.464Z,13.57
2023-04-03T14:26:24.993Z,14.42
2023-04-03T14:28:55.011Z,14.07
2023-04-03T14:31:22.587Z,14.72
2023-04-03T14:33:49.509Z,15.13
2023-04-03T14:36:30.867Z,14.52
2023-04-03T14:39:00.807Z,14.83
2023-04-03T14:41:28.186Z,15.28
2023-04-03T14:43:54.653Z,15.31
2023-04-03T14:46:48.262Z,14.91
2023-04-03T14:49:28.049Z,15.22
2023-04-03T14:51:54.697Z,14.88
2023-04-03T14:54:23.360Z,15.28
2023-04-03T14:56:49.857Z,15.23
2023-04-03T14:59:16.331Z,15.09
2023-04-03T15:01:43.874Z,15.21
2023-04-03T15:04:16.692Z,15.12
2023-04-03T15:06:44.555Z,15.21
2023-04-03T15:09:25.791Z,15.21
2023-04-03T15:11:54.524Z,14.78
2023-04-03T15:14:35.280Z,14.78
2023-04-03T15:17:06.046Z,14.77
2023-04-03T15:19:39.612Z,14.80
2023-04-03T15:22:06.901Z,14.99
2023-04-03T15:24:33.580Z,15.43
2023-04-03T15:27:02.247Z,15.51
2023-04-03T15:29:28.817Z,15.24
2023-04-03T15:31:55.455Z,15.27
2023-04-03T15:34:21.992Z,15.74
2023-04-03T15:36:48.490Z,16.06
2023-04-03T15:39:15.017Z,15.96
2023-04-03T15:41:41.511Z,16.09
2023-04-03T15:44:07.997Z,15.86
2023-04-03T15:46:34.549Z,15.59
2023-04-03T15:49:02.238Z,15.66
2023-04-03T15:51:28.700Z,16.05
2023-04-03T15:53:55.203Z,15.06
2023-04-03T15:56:21.787Z,15.11
2023-04-03T15:58:48.315Z,14.98
2023-04-03T16:01:15.499Z,14.93
2023-04-03T16:03:44.539Z,14.17
2023-04-03T16:06:12.416Z,14.17
2023-04-03T16:08:39.207Z,13.95
2023-04-03T16:11:05.701Z,14.43
2023-04-03T16:13:32.209Z,14.19
2023-04-03T16:15:58.773Z,14.28
2023-04-03T16:18:25.337Z,14.25
2023-04-03T16:20:51.937Z,13.76
2023-04-03T16:25:50.496Z,13.90
2023-04-03T16:28:18.557Z,14.77
2023-04-03T16:30:47.984Z,14.18
2023-04-03T16:33:14.809Z,14.23
2023-04-03T16:35:41.520Z,13.58
2023-04-03T16:38:08.239Z,13.73
2023-04-03T16:40:35.142Z,13.73
2023-04-03T16:43:02.934Z,13.70
2023-04-03T16:45:29.567Z,13.81
2023-04-03T16:47:56.037Z,13.69
2023-04-03T16:50:22.757Z,13.92
2023-04-03T16:52:49.895Z,14.34
2023-04-03T16:55:16.528Z,14.35
2023-04-03T16:57:43.093Z,13.74
2023-04-03T17:00:10.433Z,14.18
2023-04-03T17:02:37.930Z,14.42
2023-04-03T17:05:04.835Z,14.01
2023-04-03T17:07:31.593Z,14.50
2023-04-03T17:09:58.254Z,14.13
2023-04-03T17:12:25.181Z,13.87
2023-04-03T17:14:51.819Z,13.33
2023-04-03T17:17:24.393Z,13.04
2023-04-03T17:19:51.037Z,12.94
2023-04-03T17:22:17.616Z,13.27
2023-04-03T17:24:44.630Z,13.02
2023-04-03T17:27:11.114Z,12.78
2023-04-03T17:29:37.706Z,12.91
2023-04-03T17:32:04.534Z,12.51
2023-04-03T17:34:31.071Z,12.46
2023-04-03T17:36:57.604Z,11.48
2023-04-03T17:39:24.135Z,10.93
2023-04-03T17:41:50.790Z,10.68
2023-04-03T17:44:17.251Z,10.47
2023-04-03T17:46:43.791Z,10.26
2023-04-03T17:49:10.394Z,10.32
2023-04-03T17:51:36.867Z,9.88
2023-04-03T17:54:03.426Z,9.70
2023-04-03T17:56:29.918Z,9.98
2023-04-03T17:58:57.163Z,9.56
2023-04-03T18:01:29.597Z,8.82
2023-04-03T18:03:59.299Z,8.55
2023-04-03T18:06:33.249Z,8.69
2023-04-03T18:09:09.701Z,8.72
2023-04-03T18:11:36.211Z,8.39
2023-04-03T18:14:06.579Z,8.20
2023-04-03T18:16:34.399Z,7.93
2023-04-03T18:19:12.115Z,7.92
2023-04-03T18:21:47.589Z,7.53
2023-04-03T18:24:17.383Z,7.55
2023-04-03T18:26:48.077Z,7.29
2023-04-03T18:29:15.093Z,7.12
2023-04-03T18:31:47.751Z,7.27
2023-04-03T18:34:14.282Z,7.00
2023-04-03T18:36:40.887Z,6.95
2023-04-03T18:39:07.846Z,6.99
2023-04-03T18:41:38.370Z,6.82
2023-04-03T18:44:10.233Z,7.00
2023-04-03T18:49:10.939Z,7.28
2023-04-03T18:51:37.600Z,7.16
2023-04-03T18:54:05.227Z,7.19
2023-04-03T18:56:32.180Z,7.05
2023-04-03T18:58:58.709Z,6.77
2023-04-03T19:01:25.567Z,7.04
2023-04-03T19:03:52.453Z,6.85
2023-04-03T19:06:19.257Z,6.90
2023-04-03T19:08:46.574Z,6.79
2023-04-03T19:11:13.127Z,6.90
2023-04-03T19:13:47.143Z,6.98
2023-04-03T19:16:26.090Z,7.22
2023-04-03T19:18:52.637Z,7.22
2023-04-03T19:21:19.144Z,7.44
2023-04-03T19:23:45.639Z,7.42
2023-04-03T19:26:13.254Z,7.66
2023-04-03T19:28:40.475Z,7.32
2023-04-03T19:31:16.728Z,7.31
2023-04-03T19:33:44.135Z,7.13
2023-04-03T19:36:11.952Z,7.27
2023-04-03T19:38:38.627Z,7.29
2023-04-03T19:41:09.499Z,7.38
2023-04-03T19:43:36.020Z,7.30
2023-04-03T19:46:03.034Z,7.14
2023-04-03T19:48:29.525Z,6.98
2023-04-03T19:50:56.059Z,6.68
2023-04-03T19:53:22.584Z,6.53
2023-04-03T19:55:49.140Z,6.63
2023-04-03T19:58:15.882Z,6.49
2023-04-03T20:00:42.448Z,6.25
2023-04-03T20:03:09.190Z,6.25
2023-04-03T20:05:35.775Z,6.21
2023-04-03T20:08:02.252Z,6.22
2023-04-03T20:10:28.720Z,6.00
2023-04-03T20:12:55.206Z,6.24
2023-04-03T20:15:21.732Z,6.01
2023-04-03T20:17:48.325Z,6.07
2023-04-03T20:20:15.464Z,6.30
2023-04-03T20:22:42.296Z,6.55
2023-04-03T20:25:12.249Z,6.57
2023-04-03T20:27:38.895Z,6.41
2023-04-03T20:30:07.600Z,6.22
2023-04-03T20:32:34.768Z,6.44
2023-04-03T20:35:04.193Z,6.68
2023-04-03T20:37:31.577Z,6.27
2023-04-03T20:39:58.098Z,6.35
2023-04-03T20:42:24.597Z,6.46
2023-04-03T20:44:51.041Z,6.10
2023-04-03T20:47:17.630Z,6.30
2023-04-03T20:49:44.151Z,6.36
2023-04-03T20:52:10.630Z,6.43
2023-04-03T20:54:37.127Z,6.04
2023-04-03T20:57:03.711Z,6.10
2023-04-03T20:59:30.334Z,6.52
2023-04-03T21:01:56.888Z,6.53
2023-04-03T21:04:51.153Z,6.34
2023-04-03T21:07:55.224Z,6.17
2023-04-03T21:10:59.232Z,5.89
2023-04-03T21:14:03.018Z,5.96
2023-04-03T21:16:29.464Z,5.72
2023-04-03T21:19:15.239Z,5.66
2023-04-03T21:21:42.963Z,5.92
2023-04-03T21:24:10.315Z,6.00
2023-04-03T21:26:38.652Z,5.86
2023-04-03T21:29:08.770Z,6.02
2023-04-03T21:31:51.730Z,5.79
2023-04-03T21:34:19.873Z,5.62
2023-04-03T21:36:46.707Z,5.79
2023-04-03T21:39:13.198Z,6.23
2023-04-03T21:41:39.723Z,6.09
2023-04-03T21:44:06.221Z,6.21
2023-04-03T21:46:32.886Z,5.98
2023-04-03T21:48:59.372Z,5.87
2023-04-03T21:51:25.832Z,6.07
2023-04-03T21:53:53.520Z,6.13
2023-04-03T21:56:20.798Z,6.02
2023-04-03T21:58:47.396Z,5.86
2023-04-03T22:01:15.420Z,5.76
2023-04-03T22:03:43.378Z,5.94
2023-04-03T22:06:11.650Z,5.82
2023-04-03T22:08:38.624Z,5.86
2023-04-03T22:11:10.672Z,5.70
2023-04-03T22:13:37.583Z,5.66
2023-04-03T22:16:04.656Z,5.60
2023-04-03T22:18:32.132Z,5.62
2023-04-03T22:20:58.766Z,5.45
2023-04-03T22:23:25.292Z,5.37
2023-04-03T22:26:02.009Z,5.57
2023-04-03T22:28:30.242Z,4.90
2023-04-03T22:30:56.714Z,5.09
2023-04-03T22:33:23.298Z,5.20
2023-04-03T22:35:50.132Z,5.19
2023-04-03T22:38:17.016Z,5.33
2023-04-03T22:40:44.275Z,5.24
2023-04-03T22:43:11.302Z,5.31
2023-04-03T22:45:47.549Z,5.29
2023-04-03T22:48:14.087Z,5.17
2023-04-03T22:50:40.837Z,5.55
2023-04-03T22:53:07.436Z,5.25
2023-04-03T22:55:33.891Z,5.36
2023-04-03T22:58:00.378Z,5.35
2023-04-03T23:00:27.024Z,5.26
2023-04-03T23:02:58.315Z,5.24
2023-04-03T23:05:25.026Z,4.88
2023-04-03T23:07:52.132Z,4.74
2023-04-03T23:10:18.574Z,4.95
2023-04-03T23:12:45.030Z,4.81
2023-04-03T23:15:11.605Z,5.01
2023-04-03T23:17:38.313Z,4.74
2023-04-03T23:20:05.490Z,4.81
2023-04-03T23:22:32.001Z,5.04
2023-04-03T23:24:58.500Z,5.07
2023-04-03T23:27:24.991Z,5.02
2023-04-03T23:29:51.473Z,4.65
2023-04-03T23:32:17.973Z,4.67
2023-04-03T23:34:44.464Z,4.78
2023-04-03T23:37:14.022Z,4.79
2023-04-03T23:39:40.495Z,4.87
2023-04-03T23:42:07.021Z,4.90
2023-04-03T23:44:33.501Z,4.83
2023-04-03T23:46:59.932Z,4.70
2023-04-03T23:49:26.483Z,4.74
2023-04-03T23:51:52.963Z,4.97
2023-04-03T23:54:19.566Z,4.89
2023-04-03T23:56:46.006Z,5.17
2023-04-03T23:59:12.528Z,5.16
